Duivendrecht, Netherlands
Current Conditions -  °F | °C
As of 7:55 AM on Friday 28 Nov 2014 (Local Time) from EHAM Reporting Station
Haze Haze  
Wind Chill: 36°   Ceiling: 300
Heat Index: 43°   Visibility: 1.3mi
Dew Point: 43°   Wind: 13mph
Humidity: 100%   Direction: 90°E
Pressure: 29.74"   Gusts: NA
Location:  52.33°N, 4.94°E
Report Text: EHAM 280655Z 09011KT 060V120 2100 BR OVC003 06/06 Q1007 BECMG3500 SCT006
Loading
Personal Weather Stations






























Interactive Weather Map New forecast layout! Learn more

10-Day Weather Forecast

Advertisements
Track Severe Weather on mobile